createdAt,value
2022-12-19T00:02:52.353Z,102524.00
2022-12-19T00:07:58.984Z,102508.48
2022-12-19T00:13:05.533Z,102511.42
2022-12-19T00:18:11.093Z,102492.23
2022-12-19T00:23:16.494Z,102496.70
2022-12-19T00:28:22.058Z,102494.64
2022-12-19T00:33:27.990Z,102482.48
2022-12-19T00:38:34.155Z,102475.85
2022-12-19T00:43:40.707Z,102465.89
2022-12-19T00:48:46.122Z,102464.88
2022-12-19T00:53:54.598Z,102451.30
2022-12-19T00:59:00.434Z,102442.14
2022-12-19T01:09:15.819Z,102422.81
2022-12-19T01:14:23.157Z,102416.27
2022-12-19T01:19:28.714Z,102410.36
2022-12-19T01:24:34.192Z,102410.36
2022-12-19T01:29:52.585Z,102399.17
2022-12-19T01:34:46.814Z,102395.83
2022-12-19T01:39:52.380Z,102379.13
2022-12-19T01:45:14.126Z,102365.73
2022-12-19T01:50:22.740Z,102352.50
2022-12-19T01:55:30.162Z,102342.50
2022-12-19T02:00:35.838Z,102330.56
2022-12-19T02:05:41.978Z,102316.48
2022-12-19T02:10:47.451Z,102315.98
2022-12-19T02:16:12.305Z,102294.33
2022-12-19T02:21:26.890Z,102290.40
2022-12-19T02:26:58.561Z,102291.52
2022-12-19T02:32:10.100Z,102283.31
2022-12-19T02:37:21.244Z,102280.59
2022-12-19T02:42:32.223Z,102279.86
2022-12-19T02:47:40.554Z,102272.05
2022-12-19T02:52:49.237Z,102269.39
2022-12-19T02:58:23.220Z,102279.94
2022-12-19T03:03:32.015Z,102270.97
2022-12-19T03:08:58.334Z,102257.74
2022-12-19T03:14:07.519Z,102243.43
2022-12-19T03:19:15.669Z,102243.00
2022-12-19T03:24:21.438Z,102228.38
2022-12-19T03:29:39.114Z,102217.47
2022-12-19T03:34:50.505Z,102195.16
2022-12-19T03:39:59.166Z,102177.66
2022-12-19T03:45:07.651Z,102160.62
2022-12-19T03:50:13.631Z,102176.38
2022-12-19T03:55:22.093Z,102178.27
2022-12-19T04:00:29.192Z,102174.87
2022-12-19T04:05:37.120Z,102174.38
2022-12-19T04:10:54.131Z,102199.72
2022-12-19T04:16:14.381Z,102212.16
2022-12-19T04:21:22.894Z,102205.02
2022-12-19T04:26:29.540Z,102188.02
2022-12-19T04:31:36.282Z,102164.12
2022-12-19T04:36:41.812Z,102164.44
2022-12-19T04:41:47.216Z,102174.66
2022-12-19T04:46:52.672Z,102160.33
2022-12-19T04:51:58.856Z,102156.83
2022-12-19T04:57:04.450Z,102146.95
2022-12-19T05:02:09.990Z,102136.91
2022-12-19T05:07:15.924Z,102125.92
2022-12-19T05:12:21.380Z,102134.33
2022-12-19T05:17:26.911Z,102133.05
2022-12-19T05:22:32.311Z,102122.39
2022-12-19T05:27:37.777Z,102116.27
2022-12-19T05:32:43.369Z,102128.54
2022-12-19T05:37:48.779Z,102111.10
2022-12-19T05:42:54.176Z,102111.56
2022-12-19T05:48:01.431Z,102110.22
2022-12-19T05:53:06.981Z,102098.37
2022-12-19T05:58:12.954Z,102088.41
2022-12-19T06:03:18.570Z,102070.91
2022-12-19T06:08:24.500Z,102070.84
2022-12-19T06:13:30.803Z,102073.95
2022-12-19T06:18:41.592Z,102075.45
2022-12-19T06:23:45.078Z,102083.82
2022-12-19T06:28:52.281Z,102090.69
2022-12-19T06:33:57.919Z,102082.02
2022-12-19T06:39:04.227Z,102076.66
2022-12-19T06:44:12.697Z,102077.03
2022-12-19T06:49:18.196Z,102077.45
2022-12-19T06:54:23.590Z,102062.60
2022-12-19T06:59:29.356Z,102048.22
2022-12-19T07:04:40.577Z,102049.52
2022-12-19T07:09:46.132Z,102056.42
2022-12-19T07:14:53.559Z,102049.91
2022-12-19T07:19:59.955Z,102059.20
2022-12-19T07:25:06.458Z,102037.98
2022-12-19T07:30:13.047Z,102038.02
2022-12-19T07:35:18.449Z,102049.55
2022-12-19T07:40:23.858Z,102040.61
2022-12-19T07:45:30.799Z,102032.12
2022-12-19T07:50:36.334Z,102019.19
2022-12-19T07:55:42.017Z,102018.09
2022-12-19T08:00:48.973Z,102002.32
2022-12-19T08:05:54.732Z,102013.80
2022-12-19T08:11:13.202Z,102012.48
2022-12-19T08:16:18.640Z,101998.59
2022-12-19T08:21:24.991Z,101998.18
2022-12-19T08:26:35.713Z,101991.76
2022-12-19T08:31:38.509Z,101993.59
2022-12-19T08:36:44.058Z,101977.97
2022-12-19T08:41:49.593Z,101968.72
2022-12-19T08:46:54.987Z,101951.34
2022-12-19T08:52:00.458Z,101948.00
2022-12-19T08:57:05.947Z,101932.01
2022-12-19T09:02:11.772Z,101917.11
2022-12-19T09:07:17.706Z,101903.14
2022-12-19T09:12:23.947Z,101906.63
2022-12-19T09:17:30.374Z,101904.45
2022-12-19T09:22:36.655Z,101890.07
2022-12-19T09:28:17.501Z,101886.63
2022-12-19T09:32:49.290Z,101870.80
2022-12-19T09:37:59.892Z,101875.51
2022-12-19T09:43:14.811Z,101856.56
2022-12-19T09:48:24.486Z,101852.58
2022-12-19T09:53:34.503Z,101850.84
2022-12-19T09:58:48.805Z,101843.83
2022-12-19T10:04:03.441Z,101820.63
2022-12-19T10:10:57.337Z,101814.55
2022-12-19T10:14:35.877Z,101802.27
2022-12-19T10:20:01.024Z,101796.59
2022-12-19T10:25:30.877Z,101792.22
2022-12-19T10:30:39.502Z,101770.30
2022-12-19T10:35:48.856Z,101760.20
2022-12-19T10:41:03.576Z,101730.84
2022-12-19T10:46:15.094Z,101746.61
2022-12-19T10:51:29.751Z,101729.91
2022-12-19T10:56:38.044Z,101725.93
2022-12-19T11:01:44.809Z,101719.78
2022-12-19T11:06:55.351Z,101721.09
2022-12-19T11:16:13.047Z,101713.19
2022-12-19T11:24:34.951Z,101692.95
2022-12-19T11:29:38.940Z,101677.13
2022-12-19T11:30:48.852Z,101664.95
2022-12-19T11:33:16.154Z,101659.42
2022-12-19T11:38:39.835Z,101653.39
2022-12-19T11:44:03.688Z,101646.41
2022-12-19T11:49:40.974Z,101643.27
2022-12-19T11:54:59.453Z,101628.41
2022-12-19T12:00:06.058Z,101609.87
2022-12-19T12:05:48.318Z,101597.92
2022-12-19T12:14:40.859Z,101596.95
2022-12-19T12:29:39.843Z,101587.41
2022-12-19T12:31:06.540Z,101581.33
2022-12-19T12:32:00.362Z,101573.86
2022-12-19T12:35:41.440Z,101565.16
2022-12-19T12:38:26.303Z,101551.66
2022-12-19T12:43:52.700Z,101553.89
2022-12-19T12:49:03.978Z,101540.27
2022-12-19T12:54:12.423Z,101543.95
2022-12-19T12:59:24.072Z,101540.25
2022-12-19T13:04:35.646Z,101546.78
2022-12-19T13:09:42.411Z,101537.67
2022-12-19T13:14:50.824Z,101538.69
2022-12-19T13:19:59.246Z,101531.84
2022-12-19T13:25:24.650Z,101516.33
2022-12-19T13:30:32.426Z,101502.20
2022-12-19T13:36:38.031Z,101496.08
2022-12-19T13:40:59.328Z,101498.77
2022-12-19T13:46:08.178Z,101496.55
2022-12-19T13:51:15.146Z,101495.20
2022-12-19T13:56:22.354Z,101481.31
2022-12-19T14:01:30.943Z,101478.63
2022-12-19T14:06:47.856Z,101476.95
2022-12-19T14:13:39.619Z,101476.47
2022-12-19T14:17:23.098Z,101470.73
2022-12-19T14:22:28.673Z,101465.10
2022-12-19T14:28:25.490Z,101443.28
2022-12-19T14:33:44.776Z,101440.91
2022-12-19T14:39:19.763Z,101435.95
2022-12-19T14:43:56.509Z,101436.09
2022-12-19T14:54:09.044Z,101431.27
2022-12-19T14:59:31.230Z,101418.86
2022-12-19T15:04:51.550Z,101419.53
2022-12-19T15:11:06.717Z,101421.80
2022-12-19T15:15:20.788Z,101412.59
2022-12-19T15:20:26.267Z,101409.18
2022-12-19T15:30:41.132Z,101382.45
2022-12-19T15:35:46.531Z,101381.30
2022-12-19T15:40:52.071Z,101366.03
2022-12-19T15:46:00.762Z,101377.41
2022-12-19T15:51:06.289Z,101368.56
2022-12-19T15:56:17.657Z,101358.89
2022-12-19T16:01:23.839Z,101355.55
2022-12-19T16:06:29.739Z,101353.84
2022-12-19T16:11:35.162Z,101352.95
2022-12-19T16:16:41.113Z,101346.16
2022-12-19T16:21:48.245Z,101347.45
2022-12-19T16:26:56.723Z,101335.11
2022-12-19T16:32:02.366Z,101336.46
2022-12-19T16:37:08.041Z,101330.62
2022-12-19T16:42:17.896Z,101317.28
2022-12-19T16:47:23.505Z,101296.19
2022-12-19T16:52:28.914Z,101323.52
2022-12-19T16:57:34.538Z,101312.34
2022-12-19T17:02:43.496Z,101297.27
2022-12-19T17:07:49.877Z,101297.75
2022-12-19T17:12:57.201Z,101294.52
2022-12-19T17:18:05.947Z,101305.33
2022-12-19T17:23:16.608Z,101288.05
2022-12-19T17:28:22.101Z,101285.77
2022-12-19T17:33:33.872Z,101277.45
2022-12-19T17:38:39.349Z,101282.20
2022-12-19T17:43:45.269Z,101266.92
2022-12-19T17:48:53.690Z,101276.06
2022-12-19T17:53:59.201Z,101272.73
2022-12-19T17:59:04.634Z,101264.17
2022-12-19T18:04:18.609Z,101268.83
2022-12-19T18:09:25.795Z,101252.12
2022-12-19T18:14:31.195Z,101241.84
2022-12-19T18:19:36.834Z,101243.58
2022-12-19T18:24:44.130Z,101229.63
2022-12-19T18:29:49.901Z,101236.92
2022-12-19T18:34:55.476Z,101232.50
2022-12-19T18:40:00.880Z,101218.72
2022-12-19T18:45:07.381Z,101220.48
2022-12-19T18:50:22.326Z,101223.97
2022-12-19T18:55:31.810Z,101223.97
2022-12-19T19:00:39.392Z,101215.95
2022-12-19T19:05:45.013Z,101200.14
2022-12-19T19:10:52.318Z,101200.14
2022-12-19T19:16:03.873Z,101204.84
2022-12-19T19:21:12.642Z,101195.20
2022-12-19T19:26:18.108Z,101193.77
2022-12-19T19:31:26.760Z,101196.76
2022-12-19T19:36:36.051Z,101192.71
2022-12-19T19:41:41.682Z,101193.22
2022-12-19T19:46:47.258Z,101193.22
2022-12-19T19:52:00.323Z,101187.88
2022-12-19T19:57:00.499Z,101185.77
2022-12-19T20:02:06.232Z,101179.55
2022-12-19T20:07:11.958Z,101179.89
2022-12-19T20:12:17.602Z,101187.16
2022-12-19T20:17:23.297Z,101172.66
2022-12-19T20:22:30.299Z,101181.77
2022-12-19T20:27:35.763Z,101190.86
2022-12-19T20:32:41.167Z,101173.59
2022-12-19T20:37:46.568Z,101162.53
2022-12-19T20:42:51.964Z,101161.75
2022-12-19T20:47:58.296Z,101141.83
2022-12-19T20:53:03.729Z,101156.28
2022-12-19T20:58:09.179Z,101176.25
2022-12-19T21:03:27.738Z,101174.22
2022-12-19T21:08:26.467Z,101168.50
2022-12-19T21:13:31.952Z,101181.72
2022-12-19T21:18:39.647Z,101179.38
2022-12-19T21:23:45.688Z,101149.38
2022-12-19T21:28:51.416Z,101133.58
2022-12-19T21:33:58.896Z,101131.34
2022-12-19T21:39:05.297Z,101138.97
2022-12-19T21:44:11.791Z,101138.20
2022-12-19T21:49:17.273Z,101178.77
2022-12-19T21:54:22.689Z,101181.42
2022-12-19T21:59:28.179Z,101168.94
2022-12-19T22:04:35.030Z,101164.33
2022-12-19T22:09:40.434Z,101157.65
2022-12-19T22:14:46.632Z,101167.52
2022-12-19T22:19:52.111Z,101171.67
2022-12-19T22:24:57.513Z,101178.11
2022-12-19T22:30:08.794Z,101171.06
2022-12-19T22:35:10.539Z,101157.80
2022-12-19T22:40:16.083Z,101162.06
2022-12-19T22:45:21.543Z,101130.77
2022-12-19T22:50:27.167Z,101128.77
2022-12-19T22:55:32.556Z,101144.84
2022-12-19T23:00:38.031Z,101146.84
2022-12-19T23:05:48.550Z,101155.41
2022-12-19T23:10:53.046Z,101135.92
2022-12-19T23:15:59.226Z,101157.44
2022-12-19T23:21:10.662Z,101127.09
2022-12-19T23:26:18.815Z,101125.85
2022-12-19T23:31:24.885Z,101122.88
2022-12-19T23:37:10.103Z,101125.12
2022-12-19T23:41:38.531Z,101125.13
2022-12-19T23:46:45.193Z,101116.42
2022-12-19T23:51:50.598Z,101126.58
2022-12-19T23:56:55.988Z,101125.25
